createdAt,value
2017-07-20T19:21:15.467Z,965.51
2017-07-20T19:22:15.467Z,965.55
2017-07-20T19:23:15.465Z,965.56
2017-07-20T19:24:15.464Z,965.54
2017-07-20T19:25:15.463Z,965.58
2017-07-20T19:26:15.463Z,965.58
2017-07-20T19:27:15.461Z,965.6
2017-07-20T19:28:15.459Z,965.62
2017-07-20T19:29:15.458Z,965.61
2017-07-20T19:30:15.456Z,965.62
2017-07-20T19:31:15.456Z,965.63
2017-07-20T19:32:15.454Z,965.65
2017-07-20T19:33:15.452Z,965.67
2017-07-20T19:34:15.552Z,965.67
2017-07-20T19:35:15.450Z,965.77
2017-07-20T19:36:15.449Z,965.75
2017-07-20T19:37:15.449Z,965.78
2017-07-20T19:38:15.447Z,965.81
2017-07-20T19:39:15.545Z,965.84
2017-07-20T19:40:15.445Z,965.8
2017-07-20T19:41:15.443Z,965.79
2017-07-20T19:42:15.440Z,965.83
2017-07-20T19:43:15.440Z,965.75
2017-07-20T19:44:15.440Z,965.82
2017-07-20T19:45:15.438Z,965.81
2017-07-20T19:46:15.437Z,965.77
2017-07-20T19:47:15.435Z,965.82
2017-07-20T19:48:15.434Z,965.79
2017-07-20T19:49:15.433Z,965.79
2017-07-20T19:50:15.430Z,965.81
2017-07-20T19:51:15.429Z,965.79
2017-07-20T19:52:15.428Z,965.79
2017-07-20T19:53:15.426Z,965.79
2017-07-20T19:54:15.426Z,965.79
2017-07-20T19:55:15.424Z,965.8
2017-07-20T19:56:15.423Z,965.82
2017-07-20T19:57:15.423Z,965.8
2017-07-20T19:58:15.420Z,965.87
2017-07-20T19:59:15.420Z,965.88
2017-07-20T20:00:15.574Z,965.95
2017-07-20T20:01:15.417Z,965.96
2017-07-20T20:02:15.415Z,965.91
2017-07-20T20:03:15.413Z,965.93
2017-07-20T20:04:15.411Z,965.96
2017-07-20T20:05:15.411Z,965.93
2017-07-20T20:06:15.410Z,965.98
2017-07-20T20:07:15.409Z,965.98
2017-07-20T20:08:15.406Z,965.95
2017-07-20T20:09:15.509Z,966.01
2017-07-20T20:10:15.404Z,966.02
2017-07-20T20:11:15.408Z,966.05
2017-07-20T20:12:15.402Z,966.11
2017-07-20T20:13:15.399Z,966.1
2017-07-20T20:14:15.505Z,966.09
2017-07-20T20:15:15.395Z,966.09
2017-07-20T20:16:15.394Z,966.14
2017-07-20T20:17:15.397Z,966.12
2017-07-20T20:18:15.393Z,966.16
2017-07-20T20:19:15.391Z,966.15
2017-07-20T20:20:15.391Z,966.12
2017-07-20T20:21:15.390Z,966.14
2017-07-20T20:22:15.387Z,966.14
2017-07-20T20:23:15.386Z,966.12
2017-07-20T20:24:15.385Z,966.17
2017-07-20T20:25:15.384Z,966.15
2017-07-20T20:26:15.381Z,966.15
2017-07-20T20:27:15.381Z,966.16
2017-07-20T20:28:15.378Z,966.13
2017-07-20T20:29:15.378Z,966.13
2017-07-20T20:30:15.376Z,966.12
2017-07-20T20:31:15.374Z,966.1
2017-07-20T20:32:15.372Z,966.06
2017-07-20T20:33:15.472Z,966.08
2017-07-20T20:34:15.369Z,966.06
2017-07-20T20:35:15.368Z,966.05
2017-07-20T20:36:15.369Z,966.04
2017-07-20T20:37:15.466Z,966.07
2017-07-20T20:38:15.366Z,966.02
2017-07-20T20:39:15.365Z,966
2017-07-20T20:40:15.463Z,965.98
2017-07-20T20:41:15.361Z,965.97
2017-07-20T20:42:15.360Z,966
2017-07-20T20:43:15.357Z,966
2017-07-20T20:44:15.356Z,965.99
2017-07-20T20:45:15.355Z,966
2017-07-20T20:46:15.453Z,966.01
2017-07-20T20:47:15.351Z,966.06
2017-07-20T20:48:15.350Z,966.05
2017-07-20T20:49:15.349Z,966.07
2017-07-20T20:50:15.349Z,966.08
2017-07-20T20:51:15.345Z,966.05
2017-07-20T20:52:15.344Z,966.02
2017-07-20T20:53:15.343Z,966.07
2017-07-20T20:54:15.341Z,966.07
2017-07-20T20:55:15.441Z,966.11
2017-07-20T20:56:15.340Z,966.15
2017-07-20T20:57:15.341Z,966.14
2017-07-20T20:58:15.336Z,966.15
2017-07-20T20:59:15.335Z,966.17
2017-07-20T21:00:15.335Z,966.18
2017-07-20T21:01:15.331Z,966.18
2017-07-20T21:02:15.330Z,966.22
2017-07-20T21:03:15.329Z,966.2
2017-07-20T21:04:15.327Z,966.2
2017-07-20T21:05:15.326Z,966.18
2017-07-20T21:06:15.473Z,966.23
2017-07-20T21:07:15.325Z,966.24
2017-07-20T21:08:15.322Z,966.22
2017-07-20T21:09:15.321Z,966.18
2017-07-20T21:10:15.318Z,966.2
2017-07-20T21:11:15.316Z,966.2
2017-07-20T21:12:15.315Z,966.15
2017-07-20T21:13:15.315Z,966.15
2017-07-20T21:14:15.315Z,966.13
2017-07-20T21:15:15.311Z,966.12
2017-07-20T21:16:15.310Z,966.12
2017-07-20T21:17:15.307Z,966.15
2017-07-20T21:18:15.307Z,966.12
2017-07-20T21:19:15.305Z,966.11
2017-07-20T21:20:15.304Z,966.1
2017-07-20T21:21:15.302Z,966.09
2017-07-20T21:22:15.301Z,966.08
2017-07-20T21:23:15.399Z,966.12
2017-07-20T21:24:15.298Z,966.11
2017-07-20T21:25:15.295Z,966.17
2017-07-20T21:26:15.294Z,966.21
2017-07-20T21:27:15.292Z,966.27
2017-07-20T21:28:15.291Z,966.24
2017-07-20T21:29:15.290Z,966.26
2017-07-20T21:30:15.288Z,966.2
2017-07-20T21:31:15.288Z,966.14
2017-07-20T21:32:15.285Z,966.12
2017-07-20T21:33:15.285Z,966.1
2017-07-20T21:34:15.282Z,966.1
2017-07-20T21:35:15.282Z,966.13
2017-07-20T21:36:15.278Z,966.15
2017-07-20T21:37:15.276Z,966.18
2017-07-20T21:38:15.275Z,966.23
2017-07-20T21:39:15.272Z,966.3
2017-07-20T21:40:15.273Z,966.35
2017-07-20T21:41:15.273Z,966.39
2017-07-20T21:42:15.269Z,966.36
2017-07-20T21:43:15.267Z,966.38
2017-07-20T21:44:15.268Z,966.36
2017-07-20T21:45:15.269Z,966.38
2017-07-20T21:46:15.264Z,966.35
2017-07-20T21:47:15.261Z,966.31
2017-07-20T21:48:15.260Z,966.3
2017-07-20T21:49:15.258Z,966.29
2017-07-20T21:50:15.256Z,966.22
2017-07-20T21:51:15.256Z,966.23
2017-07-20T21:52:15.253Z,966.21
2017-07-20T21:53:15.252Z,966.17
2017-07-20T21:54:15.249Z,966.2
2017-07-20T21:55:15.249Z,966.19
2017-07-20T21:56:15.247Z,966.19
2017-07-20T21:57:15.246Z,966.21
2017-07-20T21:58:15.260Z,966.27
2017-07-20T21:59:15.242Z,966.28
2017-07-20T22:00:15.241Z,966.24
2017-07-20T22:01:15.238Z,966.31
2017-07-20T22:02:15.236Z,966.3
2017-07-20T22:03:15.236Z,966.36
2017-07-20T22:04:15.234Z,966.39
2017-07-20T22:05:15.231Z,966.38
2017-07-20T22:06:15.230Z,966.37
2017-07-20T22:07:15.229Z,966.39
2017-07-20T22:08:15.229Z,966.46
2017-07-20T22:09:15.225Z,966.4
2017-07-20T22:10:15.373Z,966.41
2017-07-20T22:11:15.224Z,966.36
2017-07-20T22:12:15.221Z,966.39
2017-07-20T22:13:15.220Z,966.37
2017-07-20T22:14:15.218Z,966.4
2017-07-20T22:15:15.217Z,966.41
2017-07-20T22:16:15.213Z,966.41
2017-07-20T22:17:15.215Z,966.37
2017-07-20T22:18:15.211Z,966.35
2017-07-20T22:19:15.211Z,966.37
2017-07-20T22:20:15.208Z,966.32
2017-07-20T22:21:15.212Z,966.3
2017-07-20T22:22:15.208Z,966.31
2017-07-20T22:23:15.202Z,966.28
2017-07-20T22:24:15.202Z,966.33
2017-07-20T22:25:15.300Z,966.33
2017-07-20T22:26:15.199Z,966.3
2017-07-20T22:27:15.196Z,966.31
2017-07-20T22:28:15.196Z,966.37
2017-07-20T22:29:15.194Z,966.33
2017-07-20T22:30:15.192Z,966.33
2017-07-20T22:31:15.189Z,966.28
2017-07-20T22:32:15.190Z,966.26
2017-07-20T22:33:15.189Z,966.25
2017-07-20T22:34:15.189Z,966.23
2017-07-20T22:35:15.185Z,966.2
2017-07-20T22:36:15.184Z,966.21
2017-07-20T22:37:15.182Z,966.22
2017-07-20T22:38:15.183Z,966.2
2017-07-20T22:39:15.182Z,966.26
2017-07-20T22:40:15.176Z,966.26
2017-07-20T22:41:15.175Z,966.3
2017-07-20T22:42:15.175Z,966.3
2017-07-20T22:43:15.322Z,966.31
2017-07-20T22:44:15.171Z,966.34
2017-07-20T22:45:15.168Z,966.31
2017-07-20T22:46:15.166Z,966.34
2017-07-20T22:47:15.164Z,966.32
2017-07-20T22:48:15.264Z,966.34
2017-07-20T22:49:15.162Z,966.36
2017-07-20T22:50:15.160Z,966.34
2017-07-20T22:51:15.157Z,966.34
2017-07-20T22:52:15.157Z,966.33
2017-07-20T22:53:15.153Z,966.3
2017-07-20T22:54:15.153Z,966.27
2017-07-20T22:55:15.150Z,966.27
2017-07-20T22:56:15.150Z,966.26
2017-07-20T22:57:15.148Z,966.27
2017-07-20T22:58:15.145Z,966.25
2017-07-20T22:59:15.145Z,966.28
2017-07-20T23:00:15.242Z,966.28
2017-07-20T23:01:15.139Z,966.31
2017-07-20T23:02:15.140Z,966.25
2017-07-20T23:03:15.136Z,966.3
2017-07-20T23:04:15.136Z,966.31
2017-07-20T23:05:15.135Z,966.26
2017-07-20T23:06:15.132Z,966.31
2017-07-20T23:07:15.130Z,966.21
2017-07-20T23:08:15.132Z,966.22
2017-07-20T23:09:15.129Z,966.2
2017-07-20T23:10:15.125Z,966.24
2017-07-20T23:11:15.273Z,966.22
2017-07-20T23:12:15.122Z,966.23
2017-07-20T23:13:15.120Z,966.21
2017-07-20T23:14:15.118Z,966.22
2017-07-20T23:15:15.116Z,966.23
2017-07-20T23:16:15.116Z,966.22
2017-07-20T23:17:15.113Z,966.2
2017-07-20T23:18:15.111Z,966.22
2017-07-20T23:19:15.109Z,966.2
2017-07-20T23:20:15.107Z,966.18
2017-07-20T23:21:15.107Z,966.2
2017-07-20T23:22:15.104Z,966.18
2017-07-20T23:23:15.101Z,966.18
2017-07-20T23:24:15.100Z,966.19
2017-07-20T23:25:15.097Z,966.19
2017-07-20T23:26:15.096Z,966.21
2017-07-20T23:27:15.096Z,966.23
2017-07-20T23:28:15.095Z,966.22
2017-07-20T23:29:15.093Z,966.22
2017-07-20T23:30:15.089Z,966.2
2017-07-20T23:31:15.090Z,966.2
2017-07-20T23:32:15.087Z,966.2
2017-07-20T23:33:15.083Z,966.19
2017-07-20T23:34:15.083Z,966.17
2017-07-20T23:35:15.082Z,966.19
2017-07-20T23:36:15.079Z,966.23
2017-07-20T23:37:15.077Z,966.25
2017-07-20T23:38:15.076Z,966.28
2017-07-20T23:39:15.075Z,966.33
2017-07-20T23:40:15.172Z,966.36
2017-07-20T23:41:15.071Z,966.4
2017-07-20T23:42:15.069Z,966.41
2017-07-20T23:43:15.068Z,966.42
2017-07-20T23:44:15.065Z,966.41
2017-07-20T23:45:15.064Z,966.42
2017-07-20T23:46:15.061Z,966.37
2017-07-20T23:47:15.060Z,966.43
2017-07-20T23:48:15.058Z,966.33
2017-07-20T23:49:15.057Z,966.34
2017-07-20T23:50:15.058Z,966.31
2017-07-20T23:51:15.052Z,966.28
2017-07-20T23:52:15.051Z,966.27
2017-07-20T23:53:15.050Z,966.27
2017-07-20T23:54:15.048Z,966.25
2017-07-20T23:55:15.045Z,966.25
2017-07-20T23:56:15.044Z,966.27
2017-07-20T23:57:15.043Z,966.27
2017-07-20T23:58:15.040Z,966.28
2017-07-20T23:59:15.039Z,966.3
